sensor_id;sensor_type;location;lat;lon;timestamp;temperature;humidity
71754;DHT22;59593;51.716;7.016;2022-11-27T00:00:23;5.30;99.90
71754;DHT22;59593;51.716;7.016;2022-11-27T00:02:49;5.30;99.90
71754;DHT22;59593;51.716;7.016;2022-11-27T00:05:14;5.40;99.90
71754;DHT22;59593;51.716;7.016;2022-11-27T00:07:40;5.40;99.90
71754;DHT22;59593;51.716;7.016;2022-11-27T00:10:06;5.50;99.90
71754;DHT22;59593;51.716;7.016;2022-11-27T00:12:32;5.40;99.90
71754;DHT22;59593;51.716;7.016;2022-11-27T00:14:58;5.50;99.90
71754;DHT22;59593;51.716;7.016;2022-11-27T00:17:23;5.50;99.90
71754;DHT22;59593;51.716;7.016;2022-11-27T00:19:49;5.60;99.90
71754;DHT22;59593;51.716;7.016;2022-11-27T00:22:15;5.70;99.90
71754;DHT22;59593;51.716;7.016;2022-11-27T00:24:42;5.70;99.90
71754;DHT22;59593;51.716;7.016;2022-11-27T00:27:07;5.70;99.90
71754;DHT22;59593;51.716;7.016;2022-11-27T00:29:33;5.80;99.90
71754;DHT22;59593;51.716;7.016;2022-11-27T00:31:58;5.80;99.90
71754;DHT22;59593;51.716;7.016;2022-11-27T00:34:24;5.80;99.90
71754;DHT22;59593;51.716;7.016;2022-11-27T00:36:51;5.70;99.90
71754;DHT22;59593;51.716;7.016;2022-11-27T00:39:17;5.60;99.90
71754;DHT22;59593;51.716;7.016;2022-11-27T00:41:42;5.50;99.90
71754;DHT22;59593;51.716;7.016;2022-11-27T00:44:08;5.40;99.90
71754;DHT22;59593;51.716;7.016;2022-11-27T00:46:34;5.30;99.90
71754;DHT22;59593;51.716;7.016;2022-11-27T00:49:01;5.40;99.90
71754;DHT22;59593;51.716;7.016;2022-11-27T00:51:28;5.40;99.90
71754;DHT22;59593;51.716;7.016;2022-11-27T00:53:55;5.50;99.90
71754;DHT22;59593;51.716;7.016;2022-11-27T00:56:27;5.50;99.90
71754;DHT22;59593;51.716;7.016;2022-11-27T00:58:53;5.50;99.90
71754;DHT22;59593;51.716;7.016;2022-11-27T01:01:25;5.50;99.90
71754;DHT22;59593;51.716;7.016;2022-11-27T01:03:51;5.50;99.90
71754;DHT22;59593;51.716;7.016;2022-11-27T01:06:18;5.50;99.90
71754;DHT22;59593;51.716;7.016;2022-11-27T01:08:44;5.70;99.90
71754;DHT22;59593;51.716;7.016;2022-11-27T01:11:19;5.60;99.90
71754;DHT22;59593;51.716;7.016;2022-11-27T01:13:45;5.50;99.90
71754;DHT22;59593;51.716;7.016;2022-11-27T01:16:14;5.50;99.90
71754;DHT22;59593;51.716;7.016;2022-11-27T01:18:41;5.40;99.90
71754;DHT22;59593;51.716;7.016;2022-11-27T01:21:08;5.40;99.90
71754;DHT22;59593;51.716;7.016;2022-11-27T01:23:34;5.30;99.90
71754;DHT22;59593;51.716;7.016;2022-11-27T01:26:05;5.20;99.90
71754;DHT22;59593;51.716;7.016;2022-11-27T01:28:31;5.10;99.90
71754;DHT22;59593;51.716;7.016;2022-11-27T01:30:58;5.10;99.90
71754;DHT22;59593;51.716;7.016;2022-11-27T01:33:24;5.00;99.90
71754;DHT22;59593;51.716;7.016;2022-11-27T01:36:00;5.10;99.90
71754;DHT22;59593;51.716;7.016;2022-11-27T01:38:27;5.00;99.90
71754;DHT22;59593;51.716;7.016;2022-11-27T01:41:19;4.90;99.90
71754;DHT22;59593;51.716;7.016;2022-11-27T01:43:55;5.00;99.90
71754;DHT22;59593;51.716;7.016;2022-11-27T01:46:42;4.80;99.90
71754;DHT22;59593;51.716;7.016;2022-11-27T01:51:50;4.80;99.90
71754;DHT22;59593;51.716;7.016;2022-11-27T01:54:18;4.80;99.90
71754;DHT22;59593;51.716;7.016;2022-11-27T01:56:48;4.70;99.90
71754;DHT22;59593;51.716;7.016;2022-11-27T01:59:15;4.70;99.90
71754;DHT22;59593;51.716;7.016;2022-11-27T02:01:41;4.70;99.90
71754;DHT22;59593;51.716;7.016;2022-11-27T02:04:07;4.70;99.90
71754;DHT22;59593;51.716;7.016;2022-11-27T02:06:32;4.60;99.90
71754;DHT22;59593;51.716;7.016;2022-11-27T02:08:58;4.60;99.90
71754;DHT22;59593;51.716;7.016;2022-11-27T02:14:19;4.60;99.90
71754;DHT22;59593;51.716;7.016;2022-11-27T02:17:00;4.60;99.90
71754;DHT22;59593;51.716;7.016;2022-11-27T02:19:49;4.50;99.90
71754;DHT22;59593;51.716;7.016;2022-11-27T02:31:09;4.40;99.90
71754;DHT22;59593;51.716;7.016;2022-11-27T02:33:42;4.40;99.90
71754;DHT22;59593;51.716;7.016;2022-11-27T02:36:13;4.40;99.90
71754;DHT22;59593;51.716;7.016;2022-11-27T02:38:45;4.40;99.90
71754;DHT22;59593;51.716;7.016;2022-11-27T02:41:13;4.40;99.90
71754;DHT22;59593;51.716;7.016;2022-11-27T02:43:44;4.30;99.90
71754;DHT22;59593;51.716;7.016;2022-11-27T02:46:12;4.20;99.90
71754;DHT22;59593;51.716;7.016;2022-11-27T02:48:43;4.20;99.90
71754;DHT22;59593;51.716;7.016;2022-11-27T02:51:11;4.20;99.90
71754;DHT22;59593;51.716;7.016;2022-11-27T02:53:42;4.20;99.90
71754;DHT22;59593;51.716;7.016;2022-11-27T02:56:11;4.10;99.90
71754;DHT22;59593;51.716;7.016;2022-11-27T02:58:39;4.10;99.90
71754;DHT22;59593;51.716;7.016;2022-11-27T03:01:06;4.10;99.90
71754;DHT22;59593;51.716;7.016;2022-11-27T03:03:35;4.20;99.90
71754;DHT22;59593;51.716;7.016;2022-11-27T03:06:06;4.20;99.90
71754;DHT22;59593;51.716;7.016;2022-11-27T03:09:33;4.20;99.90
71754;DHT22;59593;51.716;7.016;2022-11-27T03:11:39;4.20;99.90
71754;DHT22;59593;51.716;7.016;2022-11-27T03:14:07;4.30;99.90
71754;DHT22;59593;51.716;7.016;2022-11-27T03:22:40;4.20;99.90
71754;DHT22;59593;51.716;7.016;2022-11-27T03:25:06;4.20;99.90
71754;DHT22;59593;51.716;7.016;2022-11-27T03:28:19;4.10;99.90
71754;DHT22;59593;51.716;7.016;2022-11-27T03:30:19;4.10;99.90
71754;DHT22;59593;51.716;7.016;2022-11-27T03:32:45;4.10;99.90
71754;DHT22;59593;51.716;7.016;2022-11-27T03:35:13;4.10;99.90
71754;DHT22;59593;51.716;7.016;2022-11-27T03:37:40;4.20;99.90
71754;DHT22;59593;51.716;7.016;2022-11-27T03:40:07;4.20;99.90
71754;DHT22;59593;51.716;7.016;2022-11-27T03:42:35;4.20;99.90
71754;DHT22;59593;51.716;7.016;2022-11-27T03:56:41;4.20;99.90
71754;DHT22;59593;51.716;7.016;2022-11-27T03:59:18;4.20;99.90
71754;DHT22;59593;51.716;7.016;2022-11-27T04:01:46;4.20;99.90
71754;DHT22;59593;51.716;7.016;2022-11-27T04:04:11;4.20;99.90
71754;DHT22;59593;51.716;7.016;2022-11-27T04:06:37;4.20;99.90
71754;DHT22;59593;51.716;7.016;2022-11-27T04:09:04;4.20;99.90
71754;DHT22;59593;51.716;7.016;2022-11-27T04:11:30;4.20;99.90
71754;DHT22;59593;51.716;7.016;2022-11-27T04:13:55;4.20;99.90
71754;DHT22;59593;51.716;7.016;2022-11-27T04:16:21;4.30;99.90
71754;DHT22;59593;51.716;7.016;2022-11-27T04:18:47;4.40;99.90
71754;DHT22;59593;51.716;7.016;2022-11-27T04:21:12;4.50;99.90
71754;DHT22;59593;51.716;7.016;2022-11-27T04:23:38;4.50;99.90
71754;DHT22;59593;51.716;7.016;2022-11-27T04:26:05;4.60;99.90
71754;DHT22;59593;51.716;7.016;2022-11-27T04:28:30;4.70;99.90
71754;DHT22;59593;51.716;7.016;2022-11-27T04:30:56;4.60;99.90
71754;DHT22;59593;51.716;7.016;2022-11-27T04:33:22;4.70;99.90
71754;DHT22;59593;51.716;7.016;2022-11-27T04:35:49;4.70;99.90
71754;DHT22;59593;51.716;7.016;2022-11-27T04:38:14;4.60;99.90
71754;DHT22;59593;51.716;7.016;2022-11-27T04:40:40;4.60;99.90
71754;DHT22;59593;51.716;7.016;2022-11-27T04:43:05;4.90;99.90
71754;DHT22;59593;51.716;7.016;2022-11-27T04:45:31;5.10;99.90
71754;DHT22;59593;51.716;7.016;2022-11-27T04:47:57;5.00;99.90
71754;DHT22;59593;51.716;7.016;2022-11-27T04:50:23;4.90;99.90
71754;DHT22;59593;51.716;7.016;2022-11-27T04:52:48;4.90;99.90
71754;DHT22;59593;51.716;7.016;2022-11-27T04:55:14;4.70;99.90
71754;DHT22;59593;51.716;7.016;2022-11-27T04:57:39;4.70;99.90
71754;DHT22;59593;51.716;7.016;2022-11-27T05:00:06;4.70;99.90
71754;DHT22;59593;51.716;7.016;2022-11-27T05:02:31;4.70;99.90
71754;DHT22;59593;51.716;7.016;2022-11-27T05:04:57;4.80;99.90
71754;DHT22;59593;51.716;7.016;2022-11-27T05:07:23;4.70;99.90
71754;DHT22;59593;51.716;7.016;2022-11-27T05:09:49;4.70;99.90
71754;DHT22;59593;51.716;7.016;2022-11-27T05:12:15;4.80;99.90
71754;DHT22;59593;51.716;7.016;2022-11-27T05:14:40;4.70;99.90
71754;DHT22;59593;51.716;7.016;2022-11-27T05:17:06;4.80;99.90
71754;DHT22;59593;51.716;7.016;2022-11-27T05:19:32;4.90;99.90
71754;DHT22;59593;51.716;7.016;2022-11-27T05:21:58;4.90;99.90
71754;DHT22;59593;51.716;7.016;2022-11-27T05:24:25;5.00;99.90
71754;DHT22;59593;51.716;7.016;2022-11-27T05:26:51;4.90;99.90
71754;DHT22;59593;51.716;7.016;2022-11-27T05:29:17;4.90;99.90
71754;DHT22;59593;51.716;7.016;2022-11-27T05:31:44;4.80;99.90
71754;DHT22;59593;51.716;7.016;2022-11-27T05:34:10;4.80;99.90
71754;DHT22;59593;51.716;7.016;2022-11-27T05:36:35;4.80;99.90
71754;DHT22;59593;51.716;7.016;2022-11-27T05:39:03;4.90;99.90
71754;DHT22;59593;51.716;7.016;2022-11-27T05:41:28;4.90;99.90
71754;DHT22;59593;51.716;7.016;2022-11-27T05:43:54;4.90;99.90
71754;DHT22;59593;51.716;7.016;2022-11-27T05:46:21;4.90;99.90
71754;DHT22;59593;51.716;7.016;2022-11-27T05:48:48;4.90;99.90
71754;DHT22;59593;51.716;7.016;2022-11-27T05:51:14;4.90;99.90
71754;DHT22;59593;51.716;7.016;2022-11-27T05:53:39;5.00;99.90
71754;DHT22;59593;51.716;7.016;2022-11-27T05:56:07;5.00;99.90
71754;DHT22;59593;51.716;7.016;2022-11-27T05:58:34;5.00;99.90
71754;DHT22;59593;51.716;7.016;2022-11-27T06:01:00;5.00;99.90
71754;DHT22;59593;51.716;7.016;2022-11-27T06:03:26;5.00;99.90
71754;DHT22;59593;51.716;7.016;2022-11-27T06:05:51;5.00;99.90
71754;DHT22;59593;51.716;7.016;2022-11-27T06:08:17;5.00;99.90
71754;DHT22;59593;51.716;7.016;2022-11-27T06:10:44;4.90;99.90
71754;DHT22;59593;51.716;7.016;2022-11-27T06:13:10;5.00;99.90
71754;DHT22;59593;51.716;7.016;2022-11-27T06:15:36;5.00;99.90
71754;DHT22;59593;51.716;7.016;2022-11-27T06:18:02;5.00;99.90
71754;DHT22;59593;51.716;7.016;2022-11-27T06:20:28;5.00;99.90
71754;DHT22;59593;51.716;7.016;2022-11-27T06:22:55;4.90;99.90
71754;DHT22;59593;51.716;7.016;2022-11-27T06:25:20;5.00;99.90
71754;DHT22;59593;51.716;7.016;2022-11-27T06:27:46;5.00;99.90
71754;DHT22;59593;51.716;7.016;2022-11-27T06:30:12;5.00;99.90
71754;DHT22;59593;51.716;7.016;2022-11-27T06:32:37;5.00;99.90
71754;DHT22;59593;51.716;7.016;2022-11-27T06:35:03;5.10;99.90
71754;DHT22;59593;51.716;7.016;2022-11-27T06:37:29;5.10;99.90
71754;DHT22;59593;51.716;7.016;2022-11-27T06:39:55;5.10;99.90
71754;DHT22;59593;51.716;7.016;2022-11-27T06:42:20;5.10;99.90
71754;DHT22;59593;51.716;7.016;2022-11-27T06:44:46;5.20;99.90
71754;DHT22;59593;51.716;7.016;2022-11-27T06:47:12;5.20;99.90
71754;DHT22;59593;51.716;7.016;2022-11-27T06:49:37;5.20;99.90
71754;DHT22;59593;51.716;7.016;2022-11-27T06:52:03;5.20;99.90
71754;DHT22;59593;51.716;7.016;2022-11-27T06:54:29;5.20;99.90
71754;DHT22;59593;51.716;7.016;2022-11-27T06:56:55;5.20;99.90
71754;DHT22;59593;51.716;7.016;2022-11-27T06:59:20;5.20;99.90
71754;DHT22;59593;51.716;7.016;2022-11-27T07:01:46;5.20;99.90
71754;DHT22;59593;51.716;7.016;2022-11-27T07:04:13;5.20;99.90
71754;DHT22;59593;51.716;7.016;2022-11-27T07:06:40;5.20;99.90
71754;DHT22;59593;51.716;7.016;2022-11-27T07:09:06;5.10;99.90
71754;DHT22;59593;51.716;7.016;2022-11-27T07:11:32;5.10;99.90
71754;DHT22;59593;51.716;7.016;2022-11-27T07:14:00;5.20;99.90
71754;DHT22;59593;51.716;7.016;2022-11-27T07:16:28;5.20;99.90
71754;DHT22;59593;51.716;7.016;2022-11-27T07:18:57;5.30;99.90
71754;DHT22;59593;51.716;7.016;2022-11-27T07:21:23;5.30;99.90
71754;DHT22;59593;51.716;7.016;2022-11-27T07:23:49;5.40;99.90
71754;DHT22;59593;51.716;7.016;2022-11-27T07:26:23;5.40;99.90
71754;DHT22;59593;51.716;7.016;2022-11-27T07:28:50;5.40;99.90
71754;DHT22;59593;51.716;7.016;2022-11-27T07:31:21;5.40;99.90
71754;DHT22;59593;51.716;7.016;2022-11-27T07:33:47;5.50;99.90
71754;DHT22;59593;51.716;7.016;2022-11-27T07:36:22;5.50;99.90
71754;DHT22;59593;51.716;7.016;2022-11-27T07:38:47;5.60;99.90
71754;DHT22;59593;51.716;7.016;2022-11-27T07:41:13;5.70;99.90
71754;DHT22;59593;51.716;7.016;2022-11-27T07:43:40;5.80;99.90
71754;DHT22;59593;51.716;7.016;2022-11-27T07:46:10;5.70;99.90
71754;DHT22;59593;51.716;7.016;2022-11-27T07:48:35;5.80;99.90
71754;DHT22;59593;51.716;7.016;2022-11-27T07:51:05;5.90;99.90
71754;DHT22;59593;51.716;7.016;2022-11-27T07:53:30;5.90;99.90
71754;DHT22;59593;51.716;7.016;2022-11-27T07:55:58;5.90;99.90
71754;DHT22;59593;51.716;7.016;2022-11-27T07:58:24;6.00;99.90
71754;DHT22;59593;51.716;7.016;2022-11-27T08:00:50;5.90;99.90
71754;DHT22;59593;51.716;7.016;2022-11-27T08:03:15;6.00;99.90
71754;DHT22;59593;51.716;7.016;2022-11-27T08:05:41;6.00;99.90
71754;DHT22;59593;51.716;7.016;2022-11-27T08:08:07;6.10;99.90
71754;DHT22;59593;51.716;7.016;2022-11-27T08:10:36;6.10;99.90
71754;DHT22;59593;51.716;7.016;2022-11-27T08:13:02;6.30;99.90
71754;DHT22;59593;51.716;7.016;2022-11-27T08:15:28;6.40;99.90
71754;DHT22;59593;51.716;7.016;2022-11-27T08:17:53;6.40;99.90
71754;DHT22;59593;51.716;7.016;2022-11-27T08:20:19;6.60;99.90
71754;DHT22;59593;51.716;7.016;2022-11-27T08:22:45;6.60;99.90
71754;DHT22;59593;51.716;7.016;2022-11-27T08:25:11;6.60;99.90
71754;DHT22;59593;51.716;7.016;2022-11-27T08:27:37;6.70;99.90
71754;DHT22;59593;51.716;7.016;2022-11-27T08:30:03;6.80;99.90
71754;DHT22;59593;51.716;7.016;2022-11-27T08:32:29;6.80;99.90
71754;DHT22;59593;51.716;7.016;2022-11-27T08:34:54;6.90;99.90
71754;DHT22;59593;51.716;7.016;2022-11-27T08:37:20;6.90;99.90
71754;DHT22;59593;51.716;7.016;2022-11-27T08:39:46;7.00;99.90
71754;DHT22;59593;51.716;7.016;2022-11-27T08:42:12;7.00;99.90
71754;DHT22;59593;51.716;7.016;2022-11-27T08:44:37;7.10;99.90
71754;DHT22;59593;51.716;7.016;2022-11-27T08:47:03;7.10;99.90
71754;DHT22;59593;51.716;7.016;2022-11-27T08:49:28;7.10;99.90
71754;DHT22;59593;51.716;7.016;2022-11-27T08:51:54;7.10;99.90
71754;DHT22;59593;51.716;7.016;2022-11-27T08:54:20;7.10;99.90
71754;DHT22;59593;51.716;7.016;2022-11-27T08:56:45;7.20;99.90
71754;DHT22;59593;51.716;7.016;2022-11-27T08:59:11;7.20;99.90
71754;DHT22;59593;51.716;7.016;2022-11-27T09:01:36;7.40;99.90
71754;DHT22;59593;51.716;7.016;2022-11-27T09:04:02;7.40;99.90
71754;DHT22;59593;51.716;7.016;2022-11-27T09:06:30;7.50;99.90
71754;DHT22;59593;51.716;7.016;2022-11-27T09:08:58;7.50;99.90
71754;DHT22;59593;51.716;7.016;2022-11-27T09:11:24;7.50;99.90
71754;DHT22;59593;51.716;7.016;2022-11-27T09:13:50;7.50;99.90
71754;DHT22;59593;51.716;7.016;2022-11-27T09:16:20;7.50;99.90
71754;DHT22;59593;51.716;7.016;2022-11-27T09:18:48;7.50;99.90
71754;DHT22;59593;51.716;7.016;2022-11-27T09:21:16;7.50;99.90
71754;DHT22;59593;51.716;7.016;2022-11-27T09:23:42;7.50;99.90
71754;DHT22;59593;51.716;7.016;2022-11-27T09:26:10;7.50;99.90
71754;DHT22;59593;51.716;7.016;2022-11-27T09:28:37;7.50;99.90
71754;DHT22;59593;51.716;7.016;2022-11-27T09:31:04;7.40;99.90
71754;DHT22;59593;51.716;7.016;2022-11-27T09:33:32;7.50;99.90
71754;DHT22;59593;51.716;7.016;2022-11-27T09:36:05;7.50;99.90
71754;DHT22;59593;51.716;7.016;2022-11-27T09:38:31;7.60;99.90
71754;DHT22;59593;51.716;7.016;2022-11-27T09:41:02;7.70;99.90
71754;DHT22;59593;51.716;7.016;2022-11-27T09:43:32;7.70;99.90
71754;DHT22;59593;51.716;7.016;2022-11-27T09:46:02;7.80;99.90
71754;DHT22;59593;51.716;7.016;2022-11-27T09:48:36;7.80;99.90
71754;DHT22;59593;51.716;7.016;2022-11-27T09:51:05;7.90;99.90
71754;DHT22;59593;51.716;7.016;2022-11-27T09:53:44;8.00;99.90
71754;DHT22;59593;51.716;7.016;2022-11-27T09:56:11;8.10;99.90
71754;DHT22;59593;51.716;7.016;2022-11-27T09:58:46;8.10;99.90
71754;DHT22;59593;51.716;7.016;2022-11-27T10:01:16;8.20;99.90
71754;DHT22;59593;51.716;7.016;2022-11-27T10:03:44;8.20;99.90
71754;DHT22;59593;51.716;7.016;2022-11-27T10:12:03;8.20;99.90
71754;DHT22;59593;51.716;7.016;2022-11-27T10:15:04;8.30;99.90
71754;DHT22;59593;51.716;7.016;2022-11-27T10:17:39;8.30;99.90
71754;DHT22;59593;51.716;7.016;2022-11-27T10:22:52;8.40;99.90
71754;DHT22;59593;51.716;7.016;2022-11-27T10:28:01;8.50;99.90
71754;DHT22;59593;51.716;7.016;2022-11-27T10:30:30;8.50;99.90
71754;DHT22;59593;51.716;7.016;2022-11-27T10:32:58;8.50;99.90
71754;DHT22;59593;51.716;7.016;2022-11-27T10:35:29;8.50;99.90
71754;DHT22;59593;51.716;7.016;2022-11-27T10:38:04;8.50;99.90
71754;DHT22;59593;51.716;7.016;2022-11-27T10:40:38;8.50;99.90
71754;DHT22;59593;51.716;7.016;2022-11-27T10:45:46;8.60;99.90
71754;DHT22;59593;51.716;7.016;2022-11-27T10:48:14;8.60;99.90
71754;DHT22;59593;51.716;7.016;2022-11-27T10:50:40;8.60;99.90
71754;DHT22;59593;51.716;7.016;2022-11-27T10:53:09;8.60;99.90
71754;DHT22;59593;51.716;7.016;2022-11-27T11:01:18;8.70;99.90
71754;DHT22;59593;51.716;7.016;2022-11-27T11:03:44;8.70;99.90
71754;DHT22;59593;51.716;7.016;2022-11-27T11:06:24;8.70;99.90
71754;DHT22;59593;51.716;7.016;2022-11-27T11:09:25;8.80;99.90
71754;DHT22;59593;51.716;7.016;2022-11-27T11:12:12;8.80;99.90
71754;DHT22;59593;51.716;7.016;2022-11-27T11:14:56;8.90;99.90
71754;DHT22;59593;51.716;7.016;2022-11-27T11:17:31;8.90;99.90
71754;DHT22;59593;51.716;7.016;2022-11-27T11:20:21;8.90;99.90
71754;DHT22;59593;51.716;7.016;2022-11-27T11:22:47;8.90;99.90
71754;DHT22;59593;51.716;7.016;2022-11-27T11:25:18;8.90;99.90
71754;DHT22;59593;51.716;7.016;2022-11-27T11:27:45;8.90;99.90
71754;DHT22;59593;51.716;7.016;2022-11-27T11:30:20;8.90;99.90
71754;DHT22;59593;51.716;7.016;2022-11-27T11:32:47;8.90;99.90
71754;DHT22;59593;51.716;7.016;2022-11-27T11:35:28;8.90;99.90
71754;DHT22;59593;51.716;7.016;2022-11-27T11:37:57;9.00;99.90
71754;DHT22;59593;51.716;7.016;2022-11-27T11:40:28;9.00;99.90
71754;DHT22;59593;51.716;7.016;2022-11-27T11:42:56;8.90;99.90
71754;DHT22;59593;51.716;7.016;2022-11-27T11:45:25;9.00;99.90
71754;DHT22;59593;51.716;7.016;2022-11-27T11:53:35;9.10;99.90
71754;DHT22;59593;51.716;7.016;2022-11-27T12:12:11;8.90;99.90
71754;DHT22;59593;51.716;7.016;2022-11-27T12:14:46;9.00;99.90
71754;DHT22;59593;51.716;7.016;2022-11-27T12:17:21;9.10;99.90
71754;DHT22;59593;51.716;7.016;2022-11-27T12:25:37;9.20;99.90
71754;DHT22;59593;51.716;7.016;2022-11-27T12:28:27;9.10;99.90
71754;DHT22;59593;51.716;7.016;2022-11-27T12:33:31;8.90;99.90
71754;DHT22;59593;51.716;7.016;2022-11-27T12:36:32;8.90;99.90
71754;DHT22;59593;51.716;7.016;2022-11-27T12:44:48;9.10;99.90
71754;DHT22;59593;51.716;7.016;2022-11-27T12:47:42;9.00;99.90
71754;DHT22;59593;51.716;7.016;2022-11-27T12:51:10;9.00;99.90
71754;DHT22;59593;51.716;7.016;2022-11-27T12:53:35;9.00;99.90
71754;DHT22;59593;51.716;7.016;2022-11-27T12:56:24;9.00;99.90
71754;DHT22;59593;51.716;7.016;2022-11-27T12:59:05;9.00;99.90
71754;DHT22;59593;51.716;7.016;2022-11-27T13:01:42;9.00;99.90
71754;DHT22;59593;51.716;7.016;2022-11-27T13:04:33;9.00;99.90
71754;DHT22;59593;51.716;7.016;2022-11-27T13:07:07;9.10;99.90
71754;DHT22;59593;51.716;7.016;2022-11-27T13:12:04;9.20;99.90
71754;DHT22;59593;51.716;7.016;2022-11-27T13:14:33;9.20;99.90
71754;DHT22;59593;51.716;7.016;2022-11-27T13:17:03;9.10;99.90
71754;DHT22;59593;51.716;7.016;2022-11-27T13:19:45;9.00;99.90
71754;DHT22;59593;51.716;7.016;2022-11-27T13:22:16;9.00;99.90
71754;DHT22;59593;51.716;7.016;2022-11-27T13:24:46;9.00;99.90
71754;DHT22;59593;51.716;7.016;2022-11-27T13:27:15;9.00;99.90
71754;DHT22;59593;51.716;7.016;2022-11-27T13:29:49;9.00;99.90
71754;DHT22;59593;51.716;7.016;2022-11-27T13:32:21;9.00;99.90
71754;DHT22;59593;51.716;7.016;2022-11-27T13:34:49;9.00;99.90
71754;DHT22;59593;51.716;7.016;2022-11-27T13:40:02;9.00;99.90
71754;DHT22;59593;51.716;7.016;2022-11-27T13:42:28;9.00;99.90
71754;DHT22;59593;51.716;7.016;2022-11-27T13:44:58;9.10;99.90
71754;DHT22;59593;51.716;7.016;2022-11-27T13:47:27;9.00;99.90
71754;DHT22;59593;51.716;7.016;2022-11-27T13:50:03;9.10;99.90
71754;DHT22;59593;51.716;7.016;2022-11-27T13:52:29;9.10;99.90
71754;DHT22;59593;51.716;7.016;2022-11-27T13:54:59;9.10;99.90
71754;DHT22;59593;51.716;7.016;2022-11-27T13:57:26;9.10;99.90
71754;DHT22;59593;51.716;7.016;2022-11-27T14:00:01;9.10;99.90
71754;DHT22;59593;51.716;7.016;2022-11-27T14:02:48;9.10;99.90
71754;DHT22;59593;51.716;7.016;2022-11-27T14:05:20;9.10;99.90
71754;DHT22;59593;51.716;7.016;2022-11-27T14:07:57;9.10;99.90
71754;DHT22;59593;51.716;7.016;2022-11-27T14:10:26;9.00;99.90
71754;DHT22;59593;51.716;7.016;2022-11-27T14:15:27;8.90;99.90
71754;DHT22;59593;51.716;7.016;2022-11-27T14:20:37;8.90;99.90
71754;DHT22;59593;51.716;7.016;2022-11-27T14:23:09;8.90;99.90
71754;DHT22;59593;51.716;7.016;2022-11-27T14:25:35;8.80;99.90
71754;DHT22;59593;51.716;7.016;2022-11-27T14:28:21;8.90;99.90
71754;DHT22;59593;51.716;7.016;2022-11-27T14:30:56;8.80;99.90
71754;DHT22;59593;51.716;7.016;2022-11-27T14:33:23;8.80;99.90
71754;DHT22;59593;51.716;7.016;2022-11-27T14:36:03;8.80;99.90
71754;DHT22;59593;51.716;7.016;2022-11-27T14:38:32;8.70;99.90
71754;DHT22;59593;51.716;7.016;2022-11-27T14:41:10;8.70;99.90
71754;DHT22;59593;51.716;7.016;2022-11-27T14:43:35;8.70;99.90
71754;DHT22;59593;51.716;7.016;2022-11-27T14:46:01;8.70;99.90
71754;DHT22;59593;51.716;7.016;2022-11-27T14:48:48;8.60;99.90
71754;DHT22;59593;51.716;7.016;2022-11-27T14:51:18;8.60;99.90
71754;DHT22;59593;51.716;7.016;2022-11-27T14:53:46;8.60;99.90
71754;DHT22;59593;51.716;7.016;2022-11-27T14:56:13;8.60;99.90
71754;DHT22;59593;51.716;7.016;2022-11-27T14:58:49;8.70;99.90
71754;DHT22;59593;51.716;7.016;2022-11-27T15:01:35;8.80;99.90
71754;DHT22;59593;51.716;7.016;2022-11-27T15:04:22;8.80;99.90
71754;DHT22;59593;51.716;7.016;2022-11-27T15:06:48;8.80;99.90
71754;DHT22;59593;51.716;7.016;2022-11-27T15:09:19;8.60;99.90
71754;DHT22;59593;51.716;7.016;2022-11-27T15:11:55;8.50;99.90
71754;DHT22;59593;51.716;7.016;2022-11-27T15:14:21;8.50;99.90
71754;DHT22;59593;51.716;7.016;2022-11-27T15:16:51;8.40;99.90
71754;DHT22;59593;51.716;7.016;2022-11-27T15:19:30;8.30;99.90
71754;DHT22;59593;51.716;7.016;2022-11-27T15:21:57;8.30;99.90
71754;DHT22;59593;51.716;7.016;2022-11-27T15:24:35;8.30;99.90
71754;DHT22;59593;51.716;7.016;2022-11-27T15:27:19;8.20;99.90
71754;DHT22;59593;51.716;7.016;2022-11-27T15:32:22;8.10;99.90
71754;DHT22;59593;51.716;7.016;2022-11-27T15:34:49;8.10;99.90
71754;DHT22;59593;51.716;7.016;2022-11-27T15:37:29;8.20;99.90
71754;DHT22;59593;51.716;7.016;2022-11-27T15:39:59;8.10;99.90
71754;DHT22;59593;51.716;7.016;2022-11-27T15:42:27;8.10;99.90
71754;DHT22;59593;51.716;7.016;2022-11-27T15:44:55;8.10;99.90
71754;DHT22;59593;51.716;7.016;2022-11-27T15:47:33;8.10;99.90
71754;DHT22;59593;51.716;7.016;2022-11-27T15:49:59;8.10;99.90
71754;DHT22;59593;51.716;7.016;2022-11-27T15:52:25;8.10;99.90
71754;DHT22;59593;51.716;7.016;2022-11-27T15:54:51;8.10;99.90
71754;DHT22;59593;51.716;7.016;2022-11-27T15:57:16;8.20;99.90
71754;DHT22;59593;51.716;7.016;2022-11-27T15:59:42;8.20;99.90
71754;DHT22;59593;51.716;7.016;2022-11-27T16:02:10;8.20;99.90
71754;DHT22;59593;51.716;7.016;2022-11-27T16:04:36;8.50;99.90
71754;DHT22;59593;51.716;7.016;2022-11-27T16:07:02;8.50;99.90
71754;DHT22;59593;51.716;7.016;2022-11-27T16:09:28;8.50;99.90
71754;DHT22;59593;51.716;7.016;2022-11-27T16:11:54;8.50;99.90
71754;DHT22;59593;51.716;7.016;2022-11-27T16:14:20;8.50;99.90
71754;DHT22;59593;51.716;7.016;2022-11-27T16:16:45;8.50;99.90
71754;DHT22;59593;51.716;7.016;2022-11-27T16:19:11;8.40;99.90
71754;DHT22;59593;51.716;7.016;2022-11-27T16:21:39;8.50;99.90
71754;DHT22;59593;51.716;7.016;2022-11-27T16:24:07;8.50;99.90
71754;DHT22;59593;51.716;7.016;2022-11-27T16:26:33;8.50;99.90
71754;DHT22;59593;51.716;7.016;2022-11-27T16:28:59;8.50;99.90
71754;DHT22;59593;51.716;7.016;2022-11-27T16:31:25;8.70;99.90
71754;DHT22;59593;51.716;7.016;2022-11-27T16:33:51;8.70;99.90
71754;DHT22;59593;51.716;7.016;2022-11-27T16:36:19;8.80;99.90
71754;DHT22;59593;51.716;7.016;2022-11-27T16:38:45;8.80;99.90
71754;DHT22;59593;51.716;7.016;2022-11-27T16:41:16;8.80;99.90
71754;DHT22;59593;51.716;7.016;2022-11-27T16:43:45;8.90;99.90
71754;DHT22;59593;51.716;7.016;2022-11-27T16:46:16;8.90;99.90
71754;DHT22;59593;51.716;7.016;2022-11-27T16:48:44;8.80;99.90
71754;DHT22;59593;51.716;7.016;2022-11-27T16:51:14;8.90;99.90
71754;DHT22;59593;51.716;7.016;2022-11-27T16:53:42;8.80;99.90
71754;DHT22;59593;51.716;7.016;2022-11-27T16:56:09;8.80;99.90
71754;DHT22;59593;51.716;7.016;2022-11-27T16:58:37;8.70;99.90
71754;DHT22;59593;51.716;7.016;2022-11-27T17:01:04;8.60;99.90
71754;DHT22;59593;51.716;7.016;2022-11-27T17:03:30;8.60;99.90
71754;DHT22;59593;51.716;7.016;2022-11-27T17:05:56;8.50;99.90
71754;DHT22;59593;51.716;7.016;2022-11-27T17:08:23;8.50;99.90
71754;DHT22;59593;51.716;7.016;2022-11-27T17:10:49;8.60;99.90
71754;DHT22;59593;51.716;7.016;2022-11-27T17:13:14;8.50;99.90
71754;DHT22;59593;51.716;7.016;2022-11-27T17:15:40;8.60;99.90
71754;DHT22;59593;51.716;7.016;2022-11-27T17:18:06;8.50;99.90
71754;DHT22;59593;51.716;7.016;2022-11-27T17:20:31;8.40;99.90
71754;DHT22;59593;51.716;7.016;2022-11-27T17:22:57;8.40;99.90
71754;DHT22;59593;51.716;7.016;2022-11-27T17:25:22;8.40;99.90
71754;DHT22;59593;51.716;7.016;2022-11-27T17:27:50;8.30;99.90
71754;DHT22;59593;51.716;7.016;2022-11-27T17:30:16;8.30;99.90
71754;DHT22;59593;51.716;7.016;2022-11-27T17:32:42;8.20;99.90
71754;DHT22;59593;51.716;7.016;2022-11-27T17:35:08;8.30;99.90
71754;DHT22;59593;51.716;7.016;2022-11-27T17:37:33;8.20;99.90